sensor_id;sensor_type;location;lat;lon;timestamp;pressure;altitude;pressure_sealevel;temperature;humidity
13027;BME280;6580;42.680;23.324;2023-11-18T00:02:45;94620.63;;;7.80;100.00
13027;BME280;6580;42.680;23.324;2023-11-18T00:05:32;94615.53;;;7.86;100.00
13027;BME280;6580;42.680;23.324;2023-11-18T00:08:18;94631.22;;;8.05;100.00
13027;BME280;6580;42.680;23.324;2023-11-18T00:11:04;94612.97;;;7.77;100.00
13027;BME280;6580;42.680;23.324;2023-11-18T00:13:51;94604.72;;;7.54;100.00
13027;BME280;6580;42.680;23.324;2023-11-18T00:16:38;94616.81;;;7.57;100.00
13027;BME280;6580;42.680;23.324;2023-11-18T00:19:25;94641.94;;;7.70;100.00
13027;BME280;6580;42.680;23.324;2023-11-18T00:22:11;94645.88;;;7.66;100.00
13027;BME280;6580;42.680;23.324;2023-11-18T00:24:57;94647.53;;;7.67;100.00
13027;BME280;6580;42.680;23.324;2023-11-18T00:27:44;94624.25;;;7.53;100.00
13027;BME280;6580;42.680;23.324;2023-11-18T00:30:30;94604.53;;;7.48;100.00
13027;BME280;6580;42.680;23.324;2023-11-18T00:33:18;94606.69;;;7.52;100.00
13027;BME280;6580;42.680;23.324;2023-11-18T00:36:05;94609.31;;;7.44;100.00
13027;BME280;6580;42.680;23.324;2023-11-18T00:38:51;94605.84;;;7.26;100.00
13027;BME280;6580;42.680;23.324;2023-11-18T00:41:38;94611.88;;;7.36;100.00
13027;BME280;6580;42.680;23.324;2023-11-18T00:44:24;94616.56;;;7.42;100.00
13027;BME280;6580;42.680;23.324;2023-11-18T00:47:10;94581.75;;;7.37;100.00
13027;BME280;6580;42.680;23.324;2023-11-18T00:49:57;94609.91;;;7.38;100.00
13027;BME280;6580;42.680;23.324;2023-11-18T00:52:46;94630.34;;;7.28;100.00
13027;BME280;6580;42.680;23.324;2023-11-18T00:55:33;94624.94;;;7.38;100.00
13027;BME280;6580;42.680;23.324;2023-11-18T00:58:19;94625.72;;;7.30;100.00
13027;BME280;6580;42.680;23.324;2023-11-18T01:01:04;94625.03;;;7.28;100.00
13027;BME280;6580;42.680;23.324;2023-11-18T01:03:50;94620.38;;;7.22;100.00
13027;BME280;6580;42.680;23.324;2023-11-18T01:06:38;94626.28;;;7.16;100.00
13027;BME280;6580;42.680;23.324;2023-11-18T01:09:26;94627.25;;;7.15;100.00
13027;BME280;6580;42.680;23.324;2023-11-18T01:12:12;94636.66;;;7.27;100.00
13027;BME280;6580;42.680;23.324;2023-11-18T01:14:57;94650.78;;;7.18;100.00
13027;BME280;6580;42.680;23.324;2023-11-18T01:17:45;94640.03;;;7.20;100.00
13027;BME280;6580;42.680;23.324;2023-11-18T01:20:32;94651.53;;;7.28;100.00
13027;BME280;6580;42.680;23.324;2023-11-18T01:23:19;94645.50;;;7.18;100.00
13027;BME280;6580;42.680;23.324;2023-11-18T01:26:05;94656.22;;;7.00;100.00
13027;BME280;6580;42.680;23.324;2023-11-18T01:28:52;94660.38;;;7.02;100.00
13027;BME280;6580;42.680;23.324;2023-11-18T01:31:37;94642.69;;;7.20;100.00
13027;BME280;6580;42.680;23.324;2023-11-18T01:34:25;94649.56;;;6.96;100.00
13027;BME280;6580;42.680;23.324;2023-11-18T01:37:12;94652.22;;;6.96;100.00
13027;BME280;6580;42.680;23.324;2023-11-18T01:40:00;94663.19;;;7.01;100.00
13027;BME280;6580;42.680;23.324;2023-11-18T01:42:49;94644.56;;;6.93;100.00
13027;BME280;6580;42.680;23.324;2023-11-18T01:45:34;94640.25;;;6.92;100.00
13027;BME280;6580;42.680;23.324;2023-11-18T01:48:24;94648.28;;;7.00;100.00
13027;BME280;6580;42.680;23.324;2023-11-18T01:51:11;94652.66;;;6.91;100.00
13027;BME280;6580;42.680;23.324;2023-11-18T01:53:59;94649.69;;;6.77;100.00
13027;BME280;6580;42.680;23.324;2023-11-18T01:56:47;94645.19;;;6.87;100.00
13027;BME280;6580;42.680;23.324;2023-11-18T01:59:33;94633.19;;;6.65;100.00
13027;BME280;6580;42.680;23.324;2023-11-18T02:02:19;94645.38;;;6.76;100.00
13027;BME280;6580;42.680;23.324;2023-11-18T02:05:06;94641.00;;;6.84;100.00
13027;BME280;6580;42.680;23.324;2023-11-18T02:07:52;94640.19;;;6.84;100.00
13027;BME280;6580;42.680;23.324;2023-11-18T02:10:45;94647.28;;;6.66;100.00
13027;BME280;6580;42.680;23.324;2023-11-18T02:13:36;94652.50;;;6.75;100.00
13027;BME280;6580;42.680;23.324;2023-11-18T02:16:23;94655.66;;;6.79;100.00
13027;BME280;6580;42.680;23.324;2023-11-18T02:19:20;94651.47;;;6.59;100.00
13027;BME280;6580;42.680;23.324;2023-11-18T02:22:07;94662.28;;;6.65;100.00
13027;BME280;6580;42.680;23.324;2023-11-18T02:24:53;94668.00;;;6.43;100.00
13027;BME280;6580;42.680;23.324;2023-11-18T02:27:40;94660.91;;;6.71;100.00
13027;BME280;6580;42.680;23.324;2023-11-18T02:30:27;94657.28;;;6.72;100.00
13027;BME280;6580;42.680;23.324;2023-11-18T02:33:19;94651.41;;;6.51;100.00
13027;BME280;6580;42.680;23.324;2023-11-18T02:36:13;94656.06;;;6.57;100.00
13027;BME280;6580;42.680;23.324;2023-11-18T02:39:01;94658.28;;;6.34;100.00
13027;BME280;6580;42.680;23.324;2023-11-18T02:41:52;94664.44;;;6.35;100.00
13027;BME280;6580;42.680;23.324;2023-11-18T02:44:43;94648.66;;;6.16;100.00
13027;BME280;6580;42.680;23.324;2023-11-18T02:47:29;94672.56;;;6.14;100.00
13027;BME280;6580;42.680;23.324;2023-11-18T02:50:17;94675.81;;;6.08;100.00
13027;BME280;6580;42.680;23.324;2023-11-18T02:53:06;94676.19;;;6.13;100.00
13027;BME280;6580;42.680;23.324;2023-11-18T02:55:53;94686.44;;;5.90;100.00
13027;BME280;6580;42.680;23.324;2023-11-18T02:58:46;94681.81;;;5.92;100.00
13027;BME280;6580;42.680;23.324;2023-11-18T03:01:34;94679.59;;;5.97;100.00
13027;BME280;6580;42.680;23.324;2023-11-18T03:04:23;94669.63;;;5.91;100.00
13027;BME280;6580;42.680;23.324;2023-11-18T03:07:09;94691.75;;;5.80;100.00
13027;BME280;6580;42.680;23.324;2023-11-18T03:09:55;94702.44;;;5.79;100.00
13027;BME280;6580;42.680;23.324;2023-11-18T03:12:41;94685.59;;;5.70;100.00
13027;BME280;6580;42.680;23.324;2023-11-18T03:15:28;94693.53;;;5.89;100.00
13027;BME280;6580;42.680;23.324;2023-11-18T03:18:15;94710.78;;;5.74;100.00
13027;BME280;6580;42.680;23.324;2023-11-18T03:21:01;94721.78;;;5.70;100.00
13027;BME280;6580;42.680;23.324;2023-11-18T03:23:49;94704.66;;;5.64;100.00
13027;BME280;6580;42.680;23.324;2023-11-18T03:26:34;94720.94;;;5.60;100.00
13027;BME280;6580;42.680;23.324;2023-11-18T03:29:21;94716.88;;;5.65;100.00
13027;BME280;6580;42.680;23.324;2023-11-18T03:32:11;94719.41;;;5.57;100.00
13027;BME280;6580;42.680;23.324;2023-11-18T03:34:57;94713.16;;;5.68;100.00
13027;BME280;6580;42.680;23.324;2023-11-18T03:37:43;94717.75;;;5.56;100.00
13027;BME280;6580;42.680;23.324;2023-11-18T03:40:29;94726.91;;;5.52;100.00
13027;BME280;6580;42.680;23.324;2023-11-18T03:43:15;94711.94;;;5.34;100.00
13027;BME280;6580;42.680;23.324;2023-11-18T03:46:02;94719.69;;;5.35;100.00
13027;BME280;6580;42.680;23.324;2023-11-18T03:48:47;94721.91;;;5.30;100.00
13027;BME280;6580;42.680;23.324;2023-11-18T03:51:36;94730.53;;;5.32;100.00
13027;BME280;6580;42.680;23.324;2023-11-18T03:54:22;94716.09;;;5.46;100.00
13027;BME280;6580;42.680;23.324;2023-11-18T03:57:07;94708.59;;;5.32;100.00
13027;BME280;6580;42.680;23.324;2023-11-18T03:59:52;94708.88;;;5.10;100.00
13027;BME280;6580;42.680;23.324;2023-11-18T04:02:38;94714.41;;;5.26;100.00
13027;BME280;6580;42.680;23.324;2023-11-18T04:05:24;94726.63;;;5.17;100.00
13027;BME280;6580;42.680;23.324;2023-11-18T04:08:11;94734.97;;;5.13;100.00
13027;BME280;6580;42.680;23.324;2023-11-18T04:10:57;94729.69;;;5.13;100.00
13027;BME280;6580;42.680;23.324;2023-11-18T04:13:43;94728.72;;;5.14;100.00
13027;BME280;6580;42.680;23.324;2023-11-18T04:16:29;94744.28;;;4.98;100.00
13027;BME280;6580;42.680;23.324;2023-11-18T04:19:15;94736.06;;;5.10;100.00
13027;BME280;6580;42.680;23.324;2023-11-18T04:22:01;94748.47;;;5.19;100.00
13027;BME280;6580;42.680;23.324;2023-11-18T04:24:48;94750.13;;;5.20;100.00
13027;BME280;6580;42.680;23.324;2023-11-18T04:27:34;94747.75;;;5.27;100.00
13027;BME280;6580;42.680;23.324;2023-11-18T04:30:19;94744.97;;;5.28;100.00
13027;BME280;6580;42.680;23.324;2023-11-18T04:33:05;94741.09;;;5.32;100.00
13027;BME280;6580;42.680;23.324;2023-11-18T04:35:50;94758.75;;;5.41;100.00
13027;BME280;6580;42.680;23.324;2023-11-18T04:38:38;94755.38;;;5.11;100.00
13027;BME280;6580;42.680;23.324;2023-11-18T04:41:26;94764.44;;;5.08;100.00
13027;BME280;6580;42.680;23.324;2023-11-18T04:44:12;94754.97;;;5.15;100.00
13027;BME280;6580;42.680;23.324;2023-11-18T04:47:00;94757.63;;;5.25;100.00
13027;BME280;6580;42.680;23.324;2023-11-18T04:49:46;94761.91;;;5.16;100.00
13027;BME280;6580;42.680;23.324;2023-11-18T04:52:32;94765.00;;;5.21;100.00
13027;BME280;6580;42.680;23.324;2023-11-18T04:55:18;94772.63;;;5.05;100.00
13027;BME280;6580;42.680;23.324;2023-11-18T04:58:05;94778.25;;;4.92;100.00
13027;BME280;6580;42.680;23.324;2023-11-18T05:00:52;94759.66;;;4.93;100.00
13027;BME280;6580;42.680;23.324;2023-11-18T05:03:38;94743.94;;;4.92;100.00
13027;BME280;6580;42.680;23.324;2023-11-18T05:06:26;94752.47;;;5.04;100.00
13027;BME280;6580;42.680;23.324;2023-11-18T05:09:12;94742.47;;;5.08;100.00
13027;BME280;6580;42.680;23.324;2023-11-18T05:11:58;94729.78;;;4.93;100.00
13027;BME280;6580;42.680;23.324;2023-11-18T05:14:46;94732.81;;;4.79;100.00
13027;BME280;6580;42.680;23.324;2023-11-18T05:17:34;94742.75;;;5.14;100.00
13027;BME280;6580;42.680;23.324;2023-11-18T05:20:20;94742.63;;;5.06;100.00
13027;BME280;6580;42.680;23.324;2023-11-18T05:23:06;94728.00;;;4.93;100.00
13027;BME280;6580;42.680;23.324;2023-11-18T05:25:54;94739.13;;;5.06;100.00
13027;BME280;6580;42.680;23.324;2023-11-18T05:28:39;94739.78;;;4.80;100.00
13027;BME280;6580;42.680;23.324;2023-11-18T05:31:29;94726.88;;;4.86;100.00
13027;BME280;6580;42.680;23.324;2023-11-18T05:34:17;94733.13;;;4.85;100.00
13027;BME280;6580;42.680;23.324;2023-11-18T05:37:04;94730.47;;;4.85;100.00
13027;BME280;6580;42.680;23.324;2023-11-18T05:39:50;94721.84;;;4.74;100.00
13027;BME280;6580;42.680;23.324;2023-11-18T05:42:44;94727.44;;;4.80;100.00
13027;BME280;6580;42.680;23.324;2023-11-18T05:45:32;94730.75;;;4.92;100.00
13027;BME280;6580;42.680;23.324;2023-11-18T05:48:39;94736.84;;;4.73;100.00
13027;BME280;6580;42.680;23.324;2023-11-18T05:51:26;94761.31;;;4.85;100.00
13027;BME280;6580;42.680;23.324;2023-11-18T05:54:13;94752.56;;;4.94;100.00
13027;BME280;6580;42.680;23.324;2023-11-18T05:57:01;94751.56;;;4.76;100.00
13027;BME280;6580;42.680;23.324;2023-11-18T05:59:50;94742.28;;;4.81;100.00
13027;BME280;6580;42.680;23.324;2023-11-18T06:02:39;94737.16;;;4.89;100.00
13027;BME280;6580;42.680;23.324;2023-11-18T06:05:27;94746.22;;;5.05;100.00
13027;BME280;6580;42.680;23.324;2023-11-18T06:08:14;94761.84;;;4.79;100.00
13027;BME280;6580;42.680;23.324;2023-11-18T06:11:01;94740.75;;;4.79;100.00
13027;BME280;6580;42.680;23.324;2023-11-18T06:13:57;94764.91;;;4.74;100.00
13027;BME280;6580;42.680;23.324;2023-11-18T06:16:43;94761.34;;;4.94;100.00
13027;BME280;6580;42.680;23.324;2023-11-18T06:19:30;94778.09;;;4.74;100.00
13027;BME280;6580;42.680;23.324;2023-11-18T06:22:17;94763.28;;;4.92;100.00
13027;BME280;6580;42.680;23.324;2023-11-18T06:25:08;94761.28;;;4.75;100.00
13027;BME280;6580;42.680;23.324;2023-11-18T06:27:56;94764.34;;;4.71;100.00
13027;BME280;6580;42.680;23.324;2023-11-18T06:30:42;94761.09;;;5.06;100.00
13027;BME280;6580;42.680;23.324;2023-11-18T06:33:28;94746.31;;;4.95;100.00
13027;BME280;6580;42.680;23.324;2023-11-18T06:36:17;94744.41;;;5.06;100.00
13027;BME280;6580;42.680;23.324;2023-11-18T06:39:04;94759.72;;;5.21;100.00
13027;BME280;6580;42.680;23.324;2023-11-18T06:41:54;94712.97;;;4.75;100.00
13027;BME280;6580;42.680;23.324;2023-11-18T06:44:40;94759.16;;;5.27;100.00
13027;BME280;6580;42.680;23.324;2023-11-18T06:47:26;94757.88;;;5.03;100.00
13027;BME280;6580;42.680;23.324;2023-11-18T06:50:11;94744.94;;;4.81;100.00
13027;BME280;6580;42.680;23.324;2023-11-18T06:52:59;94747.06;;;5.15;100.00
13027;BME280;6580;42.680;23.324;2023-11-18T06:55:47;94768.63;;;5.39;100.00
13027;BME280;6580;42.680;23.324;2023-11-18T06:58:33;94772.94;;;5.50;99.60
13027;BME280;6580;42.680;23.324;2023-11-18T07:01:20;94774.00;;;5.38;99.68
13027;BME280;6580;42.680;23.324;2023-11-18T07:04:07;94758.47;;;5.44;98.67
13027;BME280;6580;42.680;23.324;2023-11-18T07:06:55;94777.09;;;5.62;96.01
13027;BME280;6580;42.680;23.324;2023-11-18T07:09:41;94773.88;;;5.20;95.79
13027;BME280;6580;42.680;23.324;2023-11-18T07:12:33;94785.81;;;5.15;99.01
13027;BME280;6580;42.680;23.324;2023-11-18T07:15:22;94785.31;;;4.82;99.25
13027;BME280;6580;42.680;23.324;2023-11-18T07:18:08;94789.28;;;5.15;100.00
13027;BME280;6580;42.680;23.324;2023-11-18T07:20:54;94792.72;;;4.97;100.00
13027;BME280;6580;42.680;23.324;2023-11-18T07:23:39;94784.00;;;5.15;100.00
13027;BME280;6580;42.680;23.324;2023-11-18T07:26:26;94784.09;;;4.86;100.00
13027;BME280;6580;42.680;23.324;2023-11-18T07:29:13;94799.09;;;4.95;100.00
13027;BME280;6580;42.680;23.324;2023-11-18T07:32:01;94785.78;;;4.96;100.00
13027;BME280;6580;42.680;23.324;2023-11-18T07:34:49;94794.28;;;5.09;100.00
13027;BME280;6580;42.680;23.324;2023-11-18T07:37:35;94801.47;;;4.97;100.00
13027;BME280;6580;42.680;23.324;2023-11-18T07:40:21;94812.56;;;5.01;100.00
13027;BME280;6580;42.680;23.324;2023-11-18T07:43:12;94808.09;;;4.83;100.00
13027;BME280;6580;42.680;23.324;2023-11-18T07:45:59;94797.72;;;4.91;100.00
13027;BME280;6580;42.680;23.324;2023-11-18T07:48:44;94802.03;;;5.01;100.00
13027;BME280;6580;42.680;23.324;2023-11-18T07:51:30;94791.50;;;5.20;100.00
13027;BME280;6580;42.680;23.324;2023-11-18T07:54:15;94790.00;;;5.27;100.00
13027;BME280;6580;42.680;23.324;2023-11-18T07:57:02;94786.66;;;5.15;100.00
13027;BME280;6580;42.680;23.324;2023-11-18T07:59:48;94790.53;;;5.11;100.00
13027;BME280;6580;42.680;23.324;2023-11-18T08:02:35;94794.28;;;5.18;100.00
13027;BME280;6580;42.680;23.324;2023-11-18T08:05:21;94800.22;;;5.01;99.05
13027;BME280;6580;42.680;23.324;2023-11-18T08:08:07;94799.50;;;4.90;100.00
13027;BME280;6580;42.680;23.324;2023-11-18T08:10:56;94803.19;;;5.17;100.00
13027;BME280;6580;42.680;23.324;2023-11-18T08:13:43;94795.78;;;5.11;98.94
13027;BME280;6580;42.680;23.324;2023-11-18T08:16:29;94807.94;;;5.42;96.25
13027;BME280;6580;42.680;23.324;2023-11-18T08:19:18;94809.63;;;5.43;96.33
13027;BME280;6580;42.680;23.324;2023-11-18T08:22:05;94811.16;;;5.55;97.20
13027;BME280;6580;42.680;23.324;2023-11-18T08:24:53;94815.44;;;5.37;94.43
13027;BME280;6580;42.680;23.324;2023-11-18T08:27:39;94813.59;;;5.28;95.21
13027;BME280;6580;42.680;23.324;2023-11-18T08:30:25;94786.09;;;5.12;96.42
13027;BME280;6580;42.680;23.324;2023-11-18T08:33:10;94793.34;;;5.29;98.55
13027;BME280;6580;42.680;23.324;2023-11-18T08:35:59;94789.19;;;5.36;94.95
13027;BME280;6580;42.680;23.324;2023-11-18T08:38:46;94816.13;;;5.30;95.89
13027;BME280;6580;42.680;23.324;2023-11-18T08:41:32;94838.03;;;5.11;97.44
13027;BME280;6580;42.680;23.324;2023-11-18T08:44:17;94640.50;;;4.01;96.99
13027;BME280;6580;42.680;23.324;2023-11-18T08:47:04;94807.94;;;5.42;96.30
13027;BME280;6580;42.680;23.324;2023-11-18T08:49:52;94817.41;;;5.45;94.59
13027;BME280;6580;42.680;23.324;2023-11-18T08:52:40;94812.53;;;5.31;94.83
13027;BME280;6580;42.680;23.324;2023-11-18T08:55:29;94813.34;;;5.31;96.05
13027;BME280;6580;42.680;23.324;2023-11-18T08:58:24;94811.69;;;5.49;95.31
13027;BME280;6580;42.680;23.324;2023-11-18T09:01:14;94825.03;;;5.48;93.67
13027;BME280;6580;42.680;23.324;2023-11-18T09:04:00;94798.44;;;5.21;94.51
13027;BME280;6580;42.680;23.324;2023-11-18T09:06:46;94829.75;;;5.35;95.08
13027;BME280;6580;42.680;23.324;2023-11-18T09:09:33;94801.41;;;5.27;94.59
13027;BME280;6580;42.680;23.324;2023-11-18T09:12:19;94788.88;;;5.20;96.06
13027;BME280;6580;42.680;23.324;2023-11-18T09:15:05;94820.84;;;5.26;96.31
13027;BME280;6580;42.680;23.324;2023-11-18T09:17:52;94822.50;;;5.37;94.95
13027;BME280;6580;42.680;23.324;2023-11-18T09:20:38;94822.22;;;5.21;94.29
13027;BME280;6580;42.680;23.324;2023-11-18T09:23:26;94816.94;;;5.21;95.95
13027;BME280;6580;42.680;23.324;2023-11-18T09:26:13;94809.91;;;5.40;94.40
13027;BME280;6580;42.680;23.324;2023-11-18T09:29:00;94799.84;;;5.15;94.72
13027;BME280;6580;42.680;23.324;2023-11-18T09:31:46;94770.78;;;5.06;95.86
13027;BME280;6580;42.680;23.324;2023-11-18T09:34:35;94810.00;;;5.29;95.61
13027;BME280;6580;42.680;23.324;2023-11-18T09:37:20;94802.81;;;5.50;95.52
13027;BME280;6580;42.680;23.324;2023-11-18T09:40:08;94816.16;;;5.58;93.06
13027;BME280;6580;42.680;23.324;2023-11-18T09:42:58;94817.53;;;5.34;92.44
13027;BME280;6580;42.680;23.324;2023-11-18T09:45:45;94802.50;;;5.34;94.66
13027;BME280;6580;42.680;23.324;2023-11-18T09:48:32;94801.94;;;5.21;94.70
13027;BME280;6580;42.680;23.324;2023-11-18T09:51:25;94825.72;;;5.40;95.55
13027;BME280;6580;42.680;23.324;2023-11-18T09:54:18;94801.25;;;5.29;93.80
13027;BME280;6580;42.680;23.324;2023-11-18T09:57:16;94786.22;;;5.20;93.91
13027;BME280;6580;42.680;23.324;2023-11-18T10:00:13;94773.63;;;5.33;93.15
13027;BME280;6580;42.680;23.324;2023-11-18T10:03:06;94809.31;;;5.46;91.52
13027;BME280;6580;42.680;23.324;2023-11-18T10:05:54;94804.31;;;5.24;91.85
13027;BME280;6580;42.680;23.324;2023-11-18T10:08:41;94794.72;;;5.14;94.10
13027;BME280;6580;42.680;23.324;2023-11-18T10:11:30;94804.44;;;5.32;94.24
13027;BME280;6580;42.680;23.324;2023-11-18T10:14:36;94773.59;;;5.14;94.80
13027;BME280;6580;42.680;23.324;2023-11-18T10:17:25;94797.22;;;5.34;93.22
13027;BME280;6580;42.680;23.324;2023-11-18T10:20:11;94802.78;;;5.31;93.02
13027;BME280;6580;42.680;23.324;2023-11-18T10:23:08;94811.84;;;5.57;91.47
13027;BME280;6580;42.680;23.324;2023-11-18T10:25:55;94817.66;;;5.42;91.53
13027;BME280;6580;42.680;23.324;2023-11-18T10:28:42;94826.44;;;5.52;92.76
13027;BME280;6580;42.680;23.324;2023-11-18T10:31:32;94821.16;;;5.42;92.74
13027;BME280;6580;42.680;23.324;2023-11-18T10:34:20;94821.41;;;5.30;91.69
13027;BME280;6580;42.680;23.324;2023-11-18T10:37:06;94820.72;;;5.37;90.41
13027;BME280;6580;42.680;23.324;2023-11-18T10:39:55;94818.22;;;5.64;88.64
13027;BME280;6580;42.680;23.324;2023-11-18T10:42:45;94817.25;;;5.56;89.15
13027;BME280;6580;42.680;23.324;2023-11-18T10:45:38;94826.00;;;5.37;88.04
13027;BME280;6580;42.680;23.324;2023-11-18T10:48:25;94823.50;;;5.36;88.35
13027;BME280;6580;42.680;23.324;2023-11-18T10:51:13;94816.56;;;5.35;87.93
13027;BME280;6580;42.680;23.324;2023-11-18T10:54:01;94816.00;;;5.50;89.69
13027;BME280;6580;42.680;23.324;2023-11-18T10:56:51;94791.97;;;5.44;89.39
13027;BME280;6580;42.680;23.324;2023-11-18T10:59:58;94798.22;;;5.43;88.66
13027;BME280;6580;42.680;23.324;2023-11-18T11:02:43;94815.47;;;5.56;87.52
13027;BME280;6580;42.680;23.324;2023-11-18T11:05:31;94803.50;;;5.62;87.51
13027;BME280;6580;42.680;23.324;2023-11-18T11:08:21;94800.06;;;5.80;87.20
13027;BME280;6580;42.680;23.324;2023-11-18T11:11:07;94802.69;;;5.52;86.64
13027;BME280;6580;42.680;23.324;2023-11-18T11:14:00;94780.28;;;5.27;88.59
13027;BME280;6580;42.680;23.324;2023-11-18T11:16:52;94809.47;;;5.45;88.98
13027;BME280;6580;42.680;23.324;2023-11-18T11:19:49;94805.16;;;5.63;88.69
13027;BME280;6580;42.680;23.324;2023-11-18T11:22:49;94808.09;;;5.60;88.37
13027;BME280;6580;42.680;23.324;2023-11-18T11:25:42;94801.28;;;5.57;87.48
13027;BME280;6580;42.680;23.324;2023-11-18T11:28:36;94812.81;;;5.37;88.92
13027;BME280;6580;42.680;23.324;2023-11-18T11:31:31;94803.38;;;5.44;87.79
13027;BME280;6580;42.680;23.324;2023-11-18T11:34:23;94794.75;;;5.42;88.49
13027;BME280;6580;42.680;23.324;2023-11-18T11:37:14;94788.19;;;5.46;87.81
13027;BME280;6580;42.680;23.324;2023-11-18T11:40:02;94774.72;;;5.49;87.06
13027;BME280;6580;42.680;23.324;2023-11-18T11:42:56;94788.06;;;5.57;87.46
13027;BME280;6580;42.680;23.324;2023-11-18T11:45:45;94787.09;;;5.39;90.39
13027;BME280;6580;42.680;23.324;2023-11-18T11:48:31;94780.44;;;5.73;89.20
13027;BME280;6580;42.680;23.324;2023-11-18T11:51:24;94771.81;;;5.62;87.57
13027;BME280;6580;42.680;23.324;2023-11-18T11:54:18;94757.09;;;5.31;88.29
13027;BME280;6580;42.680;23.324;2023-11-18T11:57:05;94782.91;;;5.56;87.81
13027;BME280;6580;42.680;23.324;2023-11-18T11:59:56;94790.31;;;5.81;87.68
13027;BME280;6580;42.680;23.324;2023-11-18T12:02:48;94786.16;;;5.78;87.53
13027;BME280;6580;42.680;23.324;2023-11-18T12:05:36;94795.72;;;5.70;88.78
13027;BME280;6580;42.680;23.324;2023-11-18T12:08:27;94782.78;;;5.67;88.33
13027;BME280;6580;42.680;23.324;2023-11-18T12:11:15;94770.84;;;5.53;89.15
13027;BME280;6580;42.680;23.324;2023-11-18T12:14:05;94787.84;;;5.79;88.54
13027;BME280;6580;42.680;23.324;2023-11-18T12:17:17;94773.63;;;5.61;88.14
13027;BME280;6580;42.680;23.324;2023-11-18T12:20:39;94787.38;;;6.03;87.13
13027;BME280;6580;42.680;23.324;2023-11-18T12:23:26;94783.63;;;5.48;87.63
13027;BME280;6580;42.680;23.324;2023-11-18T12:26:37;94774.03;;;5.57;88.96
13027;BME280;6580;42.680;23.324;2023-11-18T12:29:31;94771.69;;;5.63;88.23
13027;BME280;6580;42.680;23.324;2023-11-18T12:35:40;94774.16;;;5.74;86.90
13027;BME280;6580;42.680;23.324;2023-11-18T12:38:52;94766.81;;;5.97;87.72
13027;BME280;6580;42.680;23.324;2023-11-18T12:41:55;94777.09;;;5.90;86.42
13027;BME280;6580;42.680;23.324;2023-11-18T12:45:08;94776.94;;;6.01;85.13
13027;BME280;6580;42.680;23.324;2023-11-18T12:48:03;94779.19;;;5.49;88.09
13027;BME280;6580;42.680;23.324;2023-11-18T12:50:57;94794.78;;;5.80;87.96
13027;BME280;6580;42.680;23.324;2023-11-18T12:53:43;94800.47;;;5.95;86.98
13027;BME280;6580;42.680;23.324;2023-11-18T12:56:28;94796.72;;;5.97;86.98
13027;BME280;6580;42.680;23.324;2023-11-18T12:59:15;94802.53;;;5.72;88.68
13027;BME280;6580;42.680;23.324;2023-11-18T13:02:07;94790.31;;;5.81;88.30
13027;BME280;6580;42.680;23.324;2023-11-18T13:04:57;94778.59;;;5.74;89.88
13027;BME280;6580;42.680;23.324;2023-11-18T13:07:44;94800.88;;;5.62;88.20
13027;BME280;6580;42.680;23.324;2023-11-18T13:10:33;94808.38;;;5.76;89.32
13027;BME280;6580;42.680;23.324;2023-11-18T13:13:21;94804.78;;;5.86;88.93
13027;BME280;6580;42.680;23.324;2023-11-18T13:16:09;94808.78;;;5.71;89.39
13027;BME280;6580;42.680;23.324;2023-11-18T13:18:56;94790.84;;;5.75;89.93
13027;BME280;6580;42.680;23.324;2023-11-18T13:21:41;94800.63;;;5.84;88.13
13027;BME280;6580;42.680;23.324;2023-11-18T13:24:28;94810.03;;;5.77;89.05
13027;BME280;6580;42.680;23.324;2023-11-18T13:27:16;94829.63;;;5.55;92.56
13027;BME280;6580;42.680;23.324;2023-11-18T13:30:01;94812.25;;;5.24;94.05
13027;BME280;6580;42.680;23.324;2023-11-18T13:32:49;94817.66;;;5.42;92.77
13027;BME280;6580;42.680;23.324;2023-11-18T13:35:36;94824.16;;;5.28;94.35
13027;BME280;6580;42.680;23.324;2023-11-18T13:38:31;94827.09;;;5.16;97.03
13027;BME280;6580;42.680;23.324;2023-11-18T13:41:34;94842.91;;;5.06;100.00
13027;BME280;6580;42.680;23.324;2023-11-18T13:44:33;94840.81;;;5.10;100.00
13027;BME280;6580;42.680;23.324;2023-11-18T13:47:20;94830.78;;;5.04;100.00
13027;BME280;6580;42.680;23.324;2023-11-18T13:50:07;94852.31;;;4.99;100.00
13027;BME280;6580;42.680;23.324;2023-11-18T13:52:53;94864.78;;;4.97;100.00
13027;BME280;6580;42.680;23.324;2023-11-18T13:55:39;94869.44;;;5.14;100.00
13027;BME280;6580;42.680;23.324;2023-11-18T13:58:27;94870.88;;;4.89;100.00
13027;BME280;6580;42.680;23.324;2023-11-18T14:01:15;94884.66;;;5.01;100.00
13027;BME280;6580;42.680;23.324;2023-11-18T14:04:01;94878.69;;;4.99;100.00
13027;BME280;6580;42.680;23.324;2023-11-18T14:06:51;94889.25;;;4.99;100.00
13027;BME280;6580;42.680;23.324;2023-11-18T14:09:41;94890.28;;;4.78;100.00
13027;BME280;6580;42.680;23.324;2023-11-18T14:12:26;94907.84;;;4.98;100.00
13027;BME280;6580;42.680;23.324;2023-11-18T14:15:14;94906.66;;;4.82;100.00
13027;BME280;6580;42.680;23.324;2023-11-18T14:18:00;94917.22;;;4.82;100.00
13027;BME280;6580;42.680;23.324;2023-11-18T14:20:45;94917.41;;;4.90;100.00
13027;BME280;6580;42.680;23.324;2023-11-18T14:23:31;94944.13;;;5.05;100.00
13027;BME280;6580;42.680;23.324;2023-11-18T14:26:18;94932.72;;;4.75;100.00
13027;BME280;6580;42.680;23.324;2023-11-18T14:29:04;94943.28;;;4.75;100.00
13027;BME280;6580;42.680;23.324;2023-11-18T14:31:54;94942.00;;;4.70;100.00
13027;BME280;6580;42.680;23.324;2023-11-18T14:34:41;94938.38;;;4.91;100.00
13027;BME280;6580;42.680;23.324;2023-11-18T14:37:27;94956.97;;;4.69;100.00
13027;BME280;6580;42.680;23.324;2023-11-18T14:40:14;94946.50;;;4.58;100.00
13027;BME280;6580;42.680;23.324;2023-11-18T14:43:00;94956.88;;;4.71;100.00
13027;BME280;6580;42.680;23.324;2023-11-18T14:45:46;94946.19;;;4.52;100.00
13027;BME280;6580;42.680;23.324;2023-11-18T14:48:37;94949.38;;;4.76;100.00
13027;BME280;6580;42.680;23.324;2023-11-18T14:51:23;94967.53;;;4.69;100.00
13027;BME280;6580;42.680;23.324;2023-11-18T14:54:09;94985.34;;;4.77;100.00
13027;BME280;6580;42.680;23.324;2023-11-18T14:57:01;94963.91;;;4.70;100.00
13027;BME280;6580;42.680;23.324;2023-11-18T14:59:47;94954.13;;;4.82;100.00
13027;BME280;6580;42.680;23.324;2023-11-18T15:02:35;94954.66;;;4.76;100.00